sensor_id;sensor_type;location;lat;lon;timestamp;pressure;altitude;pressure_sealevel;temperature;humidity
71642;BME280;60657;50.122;14.468;2023-05-02T00:02:40;98028.73643403401;;;15.27733272297246;64.43183031967651
71642;BME280;60657;50.122;14.468;2023-05-02T00:05:43;98028.05244057483;;;15.183871213855191;64.73319600213627
71642;BME280;60657;50.122;14.468;2023-05-02T00:08:47;98033.13837471262;;;15.143816281376367;64.79232471198596
71642;BME280;60657;50.122;14.468;2023-05-02T00:11:50;98032.34846179972;;;15.138475623712523;65.33211261158159
71642;BME280;60657;50.122;14.468;2023-05-02T00:14:53;98039.0480584684;;;15.165178912031742;65.45990691996643
71642;BME280;60657;50.122;14.468;2023-05-02T00:17:56;98041.62451157284;;;15.119783321889066;65.61821927214466
71642;BME280;60657;50.122;14.468;2023-05-02T00:20:59;98034.1007586479;;;15.095750362401773;65.50377660791943
71642;BME280;60657;50.122;14.468;2023-05-02T00:24:02;98050.04068104601;;;15.093080033569848;65.42175936522469
71642;BME280;60657;50.122;14.468;2023-05-02T00:27:05;98054.29875608077;;;15.042343785763336;65.713588158999
71642;BME280;60657;50.122;14.468;2023-05-02T00:30:08;98041.23599826537;;;14.89547570000763;66.25719081406882
71642;BME280;60657;50.122;14.468;2023-05-02T00:33:12;98045.42552024481;;;14.863431754024568;66.33157854581522
71642;BME280;60657;50.122;14.468;2023-05-02T00:36:16;98048.06312050793;;;14.804684519722286;66.48226138704509
71642;BME280;60657;50.122;14.468;2023-05-02T00:39:21;98047.33522283811;;;14.76729991607538;66.69588769359883
71642;BME280;60657;50.122;14.468;2023-05-02T00:42:24;98045.68555079983;;;14.796673533226517;66.82368200198367
71642;BME280;60657;50.122;14.468;2023-05-02T00:45:26;98043.24315356062;;;14.761959258411537;66.9228656443122
71642;BME280;60657;50.122;14.468;2023-05-02T00:48:30;98044.03589318246;;;14.777981231403068;67.0411230640116
71642;BME280;60657;50.122;14.468;2023-05-02T00:51:34;98046.54250661825;;;14.799343862058443;67.06591897459373
71642;BME280;60657;50.122;14.468;2023-05-02T00:54:39;98048.3516021242;;;14.719233997100787;67.41878385595483
71642;BME280;60657;50.122;14.468;2023-05-02T00:57:42;98049.39607267277;;;14.585717555504694;67.51796749828335
71642;BME280;60657;50.122;14.468;2023-05-02T01:00:48;98049.45802394328;;;14.636453803311205;67.79835202563515
71642;BME280;60657;50.122;14.468;2023-05-02T01:04:11;98057.06734342243;;;14.518959334706643;68.09208819714657
71642;BME280;60657;50.122;14.468;2023-05-02T01:07:29;98068.86067402984;;;14.468223086900132;68.28473334859235
71642;BME280;60657;50.122;14.468;2023-05-02T01:10:51;98064.64478571198;;;14.508278019378956;68.21606775005722
71642;BME280;60657;50.122;14.468;2023-05-02T01:14:03;98072.28052718152;;;14.444190127412831;68.56321049820707
71642;BME280;60657;50.122;14.468;2023-05-02T01:17:12;98079.91349050174;;;14.38544289311055;68.74631876096743
71642;BME280;60657;50.122;14.468;2023-05-02T01:20:25;98077.4083737759;;;14.361409933623257;68.83978027008469
71642;BME280;60657;50.122;14.468;2023-05-02T01:23:34;98082.38956936463;;;14.380102235446707;68.8531319142443
71642;BME280;60657;50.122;14.468;2023-05-02T01:26:50;98075.64063796903;;;14.404135194934007;69.09536888685436
71642;BME280;60657;50.122;14.468;2023-05-02T01:30:02;98088.19631931999;;;14.390783550774394;68.97901884489204
71642;BME280;60657;50.122;14.468;2023-05-02T01:33:13;98088.22533832748;;;14.372091248950944;69.18310826276036
71642;BME280;60657;50.122;14.468;2023-05-02T01:36:19;98080.91167111717;;;14.227893492027164;69.6923781185626
71642;BME280;60657;50.122;14.468;2023-05-02T01:39:26;98092.72238496538;;;14.195849546044101;69.96322575722895
71642;BME280;60657;50.122;14.468;2023-05-02T01:42:31;98087.87980902978;;;14.12108033875029;70.15014877546349
71642;BME280;60657;50.122;14.468;2023-05-02T01:45:38;98102.26705809734;;;14.032959487296864;70.6060120546273
71642;BME280;60657;50.122;14.468;2023-05-02T01:48:45;98095.6346939444;;;13.955519951171127;70.90928511482414
71642;BME280;60657;50.122;14.468;2023-05-02T01:51:54;98100.74700065149;;;13.886091401541158;71.07904173342489
71642;BME280;60657;50.122;14.468;2023-05-02T01:55:04;98107.5087305568;;;13.880750743877314;71.41855497062639
71642;BME280;60657;50.122;14.468;2023-05-02T01:58:11;98105.93341875079;;;13.77393759060044;71.62073701075761
71642;BME280;60657;50.122;14.468;2023-05-02T02:01:17;98097.67465933146;;;13.752574959945065;71.88395513847563
71642;BME280;60657;50.122;14.468;2023-05-02T02:04:22;98098.62574613151;;;13.680476081483178;72.11856260013734
71642;BME280;60657;50.122;14.468;2023-05-02T02:07:28;98100.22770101874;;;13.691157396810866;72.05943389028764
71642;BME280;60657;50.122;14.468;2023-05-02T02:10:36;98103.63085628639;;;13.757915617608909;72.21011673151752
71642;BME280;60657;50.122;14.468;2023-05-02T02:13:47;98107.68597983051;;;13.765926604104678;71.90684367132067
71642;BME280;60657;50.122;14.468;2023-05-02T02:16:55;98116.89604784164;;;13.776607919432365;72.07469291218433
71642;BME280;60657;50.122;14.468;2023-05-02T02:20:04;98115.16960734838;;;13.771267261768521;72.14908064393073
71642;BME280;60657;50.122;14.468;2023-05-02T02:23:11;98105.38098928356;;;13.619058518348972;72.46379797055009
71642;BME280;60657;50.122;14.468;2023-05-02T02:26:18;98113.83414967531;;;13.616388189517053;72.36270695048448
71642;BME280;60657;50.122;14.468;2023-05-02T02:29:24;98119.87408055174;;;13.490882734416722;72.87769893949798
71642;BME280;60657;50.122;14.468;2023-05-02T02:32:27;98124.90001009077;;;13.386739909971773;73.04173342488747
71642;BME280;60657;50.122;14.468;2023-05-02T02:35:32;98126.57525052725;;;13.432135500114441;73.00167849240864
71642;BME280;60657;50.122;14.468;2023-05-02T02:38:41;98124.96770414598;;;13.394750896467535;73.19432364385443
71642;BME280;60657;50.122;14.468;2023-05-02T02:41:52;98131.62314314247;;;13.421454184786754;73.0665293354696
71642;BME280;60657;50.122;14.468;2023-05-02T02:45:09;98142.52117866235;;;13.357366292820629;72.9349202716106
71642;BME280;60657;50.122;14.468;2023-05-02T02:48:29;98139.97592467899;;;13.392080567635617;73.06080720225833
71642;BME280;60657;50.122;14.468;2023-05-02T02:51:38;98138.43231271631;;;13.314641031509879;73.23247119859617
71642;BME280;60657;50.122;14.468;2023-05-02T02:54:50;98148.56333440889;;;13.218509193560692;73.61394674601358
71642;BME280;60657;50.122;14.468;2023-05-02T02:58:01;98142.69322672681;;;13.282597085526817;73.54337376974136
71642;BME280;60657;50.122;14.468;2023-05-02T03:01:17;98150.82977695893;;;13.394750896467535;73.06843671320668
71642;BME280;60657;50.122;14.468;2023-05-02T03:04:23;98152.56930338992;;;13.33066300450141;72.81666285191119
71642;BME280;60657;50.122;14.468;2023-05-02T03:07:30;98156.9333661854;;;13.21049820706493;73.1103990234226
71642;BME280;60657;50.122;14.468;2023-05-02T03:10:33;98157.0750319769;;;13.018234531166556;73.7436484321355
71642;BME280;60657;50.122;14.468;2023-05-02T03:13:36;98163.70915130933;;;13.154421301594567;73.3907835507744
71642;BME280;60657;50.122;14.468;2023-05-02T03:16:39;98159.5553117418;;;13.12504768444343;73.38124666208896
71642;BME280;60657;50.122;14.468;2023-05-02T03:19:43;98165.40245568784;;;13.098344396124212;73.60250247959105
71642;BME280;60657;50.122;14.468;2023-05-02T03:22:46;98161.08740383387;;;13.221179522392617;73.35263599603266
71642;BME280;60657;50.122;14.468;2023-05-02T03:25:50;98182.76646131458;;;13.191805905241473;73.42893110551614
71642;BME280;60657;50.122;14.468;2023-05-02T03:28:53;98181.87931640063;;;13.237201495384149;72.92156862745098
71642;BME280;60657;50.122;14.468;2023-05-02T03:31:56;98186.8607950731;;;13.234531166552223;73.16571297779812
71642;BME280;60657;50.122;14.468;2023-05-02T03:34:59;98185.99338220125;;;13.279926756694898;72.84145876249332
71642;BME280;60657;50.122;14.468;2023-05-02T03:38:03;98188.6734364645;;;13.165102616922255;73.41557946135653
71642;BME280;60657;50.122;14.468;2023-05-02T03:41:06;98182.62460185295;;;13.27191577019913;72.93682764934768
71642;BME280;60657;50.122;14.468;2023-05-02T03:44:09;98187.66745791405;;;13.239871824216067;72.98641947051193
71642;BME280;60657;50.122;14.468;2023-05-02T03:47:12;98191.82223578954;;;13.261234454871442;72.81857022964827
71642;BME280;60657;50.122;14.468;2023-05-02T03:50:15;98193.67432323688;;;13.130388342107274;73.35645075150683
71642;BME280;60657;50.122;14.468;2023-05-02T03:53:18;98196.13592916932;;;13.18646524757763;73.26489662012665
71642;BME280;60657;50.122;14.468;2023-05-02T03:56:21;98192.6894768766;;;13.218509193560692;73.20767528801404
71642;BME280;60657;50.122;14.468;2023-05-02T03:59:24;98206.82822201012;;;13.293278400854504;72.91012436102845
71642;BME280;60657;50.122;14.468;2023-05-02T04:02:33;98211.9856214389;;;13.117036697947661;73.45754177157244
71642;BME280;60657;50.122;14.468;2023-05-02T04:05:36;98215.25586390543;;;13.207827878233005;73.2420080872816
71642;BME280;60657;50.122;14.468;2023-05-02T04:08:39;98220.10121662928;;;13.290608072022586;72.86434729533836
71642;BME280;60657;50.122;14.468;2023-05-02T04:11:42;98215.09879876456;;;13.31197070267796;73.21721217669948
71642;BME280;60657;50.122;14.468;2023-05-02T04:14:45;98217.55999348385;;;13.33066300450141;72.95780880445564
71642;BME280;60657;50.122;14.468;2023-05-02T04:17:48;98218.46679069014;;;13.31197070267796;72.89105058365759
71642;BME280;60657;50.122;14.468;2023-05-02T04:20:51;98219.25420647551;;;13.317311360341805;72.75753414206149
71642;BME280;60657;50.122;14.468;2023-05-02T04:23:54;98227.4851899741;;;13.35469596398871;72.57442587930113
71642;BME280;60657;50.122;14.468;2023-05-02T04:26:57;98235.16666242106;;;13.255893797207598;73.22865644312199
71642;BME280;60657;50.122;14.468;2023-05-02T04:30:00;98232.46820268082;;;13.386739909971773;72.7117570763714
71642;BME280;60657;50.122;14.468;2023-05-02T04:33:05;98227.44460850897;;;13.410772869459066;72.69459067673762
71642;BME280;60657;50.122;14.468;2023-05-02T04:36:08;98241.60748454616;;;13.424124513618679;72.93110551613641
71642;BME280;60657;50.122;14.468;2023-05-02T04:39:15;98246.69021436399;;;13.37338826581216;73.1695277332723
71642;BME280;60657;50.122;14.468;2023-05-02T04:42:19;98242.57336316649;;;13.357366292820629;73.48615243762875
71642;BME280;60657;50.122;14.468;2023-05-02T04:45:22;98253.44452479022;;;13.28793774319066;73.26871137560083
71642;BME280;60657;50.122;14.468;2023-05-02T04:48:25;98254.19474713666;;;13.410772869459066;73.47661554894331
71642;BME280;60657;50.122;14.468;2023-05-02T04:51:28;98269.16547429793;;;13.392080567635617;73.22674906538491
71642;BME280;60657;50.122;14.468;2023-05-02T04:54:31;98272.532892951;;;13.384069581139848;72.99595635919738
71642;BME280;60657;50.122;14.468;2023-05-02T04:57:34;98271.66711973907;;;13.426794842450597;72.7556267643244
71642;BME280;60657;50.122;14.468;2023-05-02T05:00:37;98274.05220590612;;;13.50156404974441;72.6831464103151
71642;BME280;60657;50.122;14.468;2023-05-02T05:03:40;98285.05939368047;;;13.37338826581216;73.32211795223927
71642;BME280;60657;50.122;14.468;2023-05-02T05:06:44;98284.25041970244;;;13.357366292820629;73.43846799420157
71642;BME280;60657;50.122;14.468;2023-05-02T05:09:47;98287.59797217033;;;13.402761882963304;73.38124666208896
71642;BME280;60657;50.122;14.468;2023-05-02T05:12:50;98291.7177022373;;;13.434805828946367;73.51667048142214
71642;BME280;60657;50.122;14.468;2023-05-02T05:15:53;98288.23668973458;;;13.538948653391316;73.08178835736629
71642;BME280;60657;50.122;14.468;2023-05-02T05:18:56;98290.73868396119;;;13.504234378576335;72.87006942854963
71642;BME280;60657;50.122;14.468;2023-05-02T05:21:59;98294.14445595523;;;13.477531090257116;72.91203173876555
71642;BME280;60657;50.122;14.468;2023-05-02T05:25:02;98301.4780534399;;;13.616388189517053;72.3016708628977
71642;BME280;60657;50.122;14.468;2023-05-02T05:28:06;98298.99522641515;;;13.549629968719003;72.56107423514153
71642;BME280;60657;50.122;14.468;2023-05-02T05:31:09;98303.92173677446;;;13.62706950484474;72.33600366216525
71642;BME280;60657;50.122;14.468;2023-05-02T05:34:14;98306.48269250004;;;13.581673914702066;72.5801480125124
71642;BME280;60657;50.122;14.468;2023-05-02T05:37:17;98313.02563342602;;;13.66979476615549;72.17769130998703
71642;BME280;60657;50.122;14.468;2023-05-02T05:40:23;98315.6065345781;;;13.640421149004347;72.34935530632487
71642;BME280;60657;50.122;14.468;2023-05-02T05:43:26;98306.36499527343;;;13.672465094987409;72.04608224612802
71642;BME280;60657;50.122;14.468;2023-05-02T05:46:30;98310.56241464433;;;13.661783779659721;72.08804455634395
71642;BME280;60657;50.122;14.468;2023-05-02T05:49:33;98313.89268214529;;;13.629739833676659;72.13382162203403
71642;BME280;60657;50.122;14.468;2023-05-02T05:52:36;98308.92673196552;;;13.69649805447471;71.95643549248493
71642;BME280;60657;50.122;14.468;2023-05-02T05:55:39;98327.09616128162;;;13.768596932936596;71.78286411841
71642;BME280;60657;50.122;14.468;2023-05-02T05:58:43;98331.15413166117;;;13.848706797894252;71.58258945601587
71642;BME280;60657;50.122;14.468;2023-05-02T06:01:46;98334.42401642715;;;13.854047455558096;71.44716563668268
71642;BME280;60657;50.122;14.468;2023-05-02T06:04:49;98336.16093354896;;;13.838025482566565;71.63408865491722
71642;BME280;60657;50.122;14.468;2023-05-02T06:07:53;98340.37997064483;;;13.811322194247346;71.91065842679484
71642;BME280;60657;50.122;14.468;2023-05-02T06:10:56;98338.4584802742;;;14.000915541313802;71.14389257648585
71642;BME280;60657;50.122;14.468;2023-05-02T06:13:59;98343.31803169151;;;14.07034409094377;70.89593347066453
71642;BME280;60657;50.122;14.468;2023-05-02T06:17:02;98344.14566614351;;;14.105058365758758;71.11337453269246
71642;BME280;60657;50.122;14.468;2023-05-02T06:20:06;98346.62859132282;;;14.123750667582208;71.42427710383764
71642;BME280;60657;50.122;14.468;2023-05-02T06:23:10;98346.92173999627;;;13.936827649347677;71.85534447241932
71642;BME280;60657;50.122;14.468;2023-05-02T06:26:13;98354.20578423215;;;14.091706721599145;71.90493629358357
71642;BME280;60657;50.122;14.468;2023-05-02T06:29:16;98358.30202304087;;;14.12108033875029;71.76760509651331
71642;BME280;60657;50.122;14.468;2023-05-02T06:32:19;98360.20744549196;;;13.920805676356146;72.78233005264363
71642;BME280;60657;50.122;14.468;2023-05-02T06:35:22;98361.86316281659;;;13.992904554818033;72.76897840848402
71642;BME280;60657;50.122;14.468;2023-05-02T06:38:25;98368.3201877197;;;14.11306935225452;72.17769130998703
71642;BME280;60657;50.122;14.468;2023-05-02T06:41:30;98380.15845263744;;;13.982223239490345;73.21149004348821
71642;BME280;60657;50.122;14.468;2023-05-02T06:44:33;98371.8181687356;;;14.083695735103383;73.94010833905547
71642;BME280;60657;50.122;14.468;2023-05-02T06:47:37;98369.97582823974;;;14.185168230716414;73.81040665293355
71642;BME280;60657;50.122;14.468;2023-05-02T06:50:40;98373.28715291776;;;14.169146257724883;73.11993591210803
71642;BME280;60657;50.122;14.468;2023-05-02T06:53:44;98391.52179277065;;;14.310673685816738;72.97306782635233
71642;BME280;60657;50.122;14.468;2023-05-02T06:56:47;98386.24877666635;;;14.484245059891663;71.63218127718014
71642;BME280;60657;50.122;14.468;2023-05-02T06:59:50;98386.57546310987;;;14.270618753337914;72.1815060654612
71642;BME280;60657;50.122;14.468;2023-05-02T07:02:53;98377.76666781279;;;14.58037689784085;70.61364156557565
71642;BME280;60657;50.122;14.468;2023-05-02T07:05:56;98397.01015253423;;;14.575036240177006;70.77004654001678
71642;BME280;60657;50.122;14.468;2023-05-02T07:09:00;98386.68252331567;;;14.761959258411537;70.37521934843977
71642;BME280;60657;50.122;14.468;2023-05-02T07:12:03;98389.82321025827;;;14.903486686503392;69.07057297627222
71642;BME280;60657;50.122;14.468;2023-05-02T07:15:07;98388.9463629781;;;14.935530632486454;69.1335164415961
71642;BME280;60657;50.122;14.468;2023-05-02T07:18:10;98397.04609125169;;;15.045014114595254;68.68146791790646
71642;BME280;60657;50.122;14.468;2023-05-02T07:21:13;98400.25359838971;;;15.159838254367898;68.51171129930572
71642;BME280;60657;50.122;14.468;2023-05-02T07:24:16;98394.9464571691;;;15.255970092317085;68.17410543984131
71642;BME280;60657;50.122;14.468;2023-05-02T07:27:19;98389.73738081983;;;15.474937056534678;67.78881513694972
71642;BME280;60657;50.122;14.468;2023-05-02T07:30:23;98399.43981505634;;;15.605783169298846;66.60433356221866
71642;BME280;60657;50.122;14.468;2023-05-02T07:33:26;98403.31600823325;;;15.731288624399177;65.91004806591897
71642;BME280;60657;50.122;14.468;2023-05-02T07:36:29;98409.13534735146;;;15.792706187533376;65.38551918822003
71642;BME280;60657;50.122;14.468;2023-05-02T07:39:32;98406.05757096369;;;15.571068894483865;65.55336842908369
71642;BME280;60657;50.122;14.468;2023-05-02T07:42:35;98407.65481108752;;;15.685893034256502;65.65064469367513
71642;BME280;60657;50.122;14.468;2023-05-02T07:45:38;98404.70316396364;;;15.910200656137938;65.60677500572213
71642;BME280;60657;50.122;14.468;2023-05-02T07:48:42;98408.09038278066;;;16.26268406195163;64.01029983978027
71642;BME280;60657;50.122;14.468;2023-05-02T07:51:45;98415.36949997208;;;16.412222476539256;63.41329060807202
71642;BME280;60657;50.122;14.468;2023-05-02T07:54:48;98409.41729038862;;;16.3935301747158;63.48386358434425
71642;BME280;60657;50.122;14.468;2023-05-02T07:57:52;98418.93351382016;;;16.70595864805066;63.40756847486077
71642;BME280;60657;50.122;14.468;2023-05-02T08:00:56;98414.41822776005;;;16.770046540016786;61.339971007858395
71642;BME280;60657;50.122;14.468;2023-05-02T08:03:59;98417.93911039986;;;17.170595864805065;62.19638361181049
71642;BME280;60657;50.122;14.468;2023-05-02T08:07:02;98405.58153882249;;;17.330815594720377;59.724422064545664
71642;BME280;60657;50.122;14.468;2023-05-02T08:10:06;98417.33994567249;;;17.37888151369497;59.22468909742885
71642;BME280;60657;50.122;14.468;2023-05-02T08:13:10;98426.15899885974;;;17.509727626459146;59.22468909742885
71642;BME280;60657;50.122;14.468;2023-05-02T08:16:13;98424.62272532585;;;17.44563973449302;58.671549553673614
71642;BME280;60657;50.122;14.468;2023-05-02T08:19:16;98431.98156450212;;;17.485694666971845;59.150301365682466
71642;BME280;60657;50.122;14.468;2023-05-02T08:22:20;98440.16625717976;;;17.568474860761427;59.30479896238651
71642;BME280;60657;50.122;14.468;2023-05-02T08:25:23;98441.85792050773;;;17.536430914778364;58.68299382009613
71642;BME280;60657;50.122;14.468;2023-05-02T08:28:26;98449.09784531113;;;17.723353933012895;56.607766842145416
71642;BME280;60657;50.122;14.468;2023-05-02T08:31:29;98443.15521625344;;;17.710002288853282;55.90012970168612
71642;BME280;60657;50.122;14.468;2023-05-02T08:34:32;98440.06900920036;;;17.936980239566644;54.627908751049056
71642;BME280;60657;50.122;14.468;2023-05-02T08:37:35;98453.65239394545;;;18.265430685893037;53.35378042267491
71642;BME280;60657;50.122;14.468;2023-05-02T08:40:39;98450.26709626416;;;18.54581521324483;54.36469062333104
71642;BME280;60657;50.122;14.468;2023-05-02T08:43:42;98451.51979948858;;;19.08789196612497;52.005264362554364
71642;BME280;60657;50.122;14.468;2023-05-02T08:46:46;98454.5407810108;;;19.066529335469596;51.5875486381323
71642;BME280;60657;50.122;14.468;2023-05-02T08:49:52;98451.33287389863;;;19.01312275883116;52.89028763256275
71642;BME280;60657;50.122;14.468;2023-05-02T08:52:58;98454.93844920585;;;19.151979858091096;51.72678721293965
71642;BME280;60657;50.122;14.468;2023-05-02T08:56:02;98459.89088696506;;;19.202716105897608;52.358129243915464
71642;BME280;60657;50.122;14.468;2023-05-02T08:59:05;98463.33628450471;;;19.066529335469596;51.873655298695354
71642;BME280;60657;50.122;14.468;2023-05-02T09:02:16;98463.28847208097;;;19.071869993133447;52.17120622568093
71642;BME280;60657;50.122;14.468;2023-05-02T09:05:30;98459.55275187998;;;19.36026550698101;52.96086060883497
71642;BME280;60657;50.122;14.468;2023-05-02T09:08:41;98467.36781584103;;;19.13595788509957;52.86739909971771
71642;BME280;60657;50.122;14.468;2023-05-02T09:11:47;98460.37810020201;;;19.269474326695658;53.64560921644922
71642;BME280;60657;50.122;14.468;2023-05-02T09:15:07;98473.86741562956;;;19.48043030441748;52.46875715266651
71642;BME280;60657;50.122;14.468;2023-05-02T09:18:18;98472.74193789499;;;19.61928740367742;52.417257953765166
71642;BME280;60657;50.122;14.468;2023-05-02T09:21:22;98472.38767975516;;;19.76081483176928;51.34531166552224
71642;BME280;60657;50.122;14.468;2023-05-02T09:24:27;98474.03801458828;;;19.768825818265043;51.146944380865186
71642;BME280;60657;50.122;14.468;2023-05-02T09:27:33;98476.61530454324;;;19.720759899290456;50.914244296940566
71642;BME280;60657;50.122;14.468;2023-05-02T09:30:53;98483.5289769289;;;19.88097962920577;50.746395056076906
71642;BME280;60657;50.122;14.468;2023-05-02T09:34:09;98486.26228856137;;;19.76615548943313;50.578545815213246
71642;BME280;60657;50.122;14.468;2023-05-02T09:37:32;98495.69770654888;;;19.66735332265202;50.828412298771646
71642;BME280;60657;50.122;14.468;2023-05-02T09:40:36;98497.3483133975;;;19.76081483176928;50.90661478599222
71642;BME280;60657;50.122;14.468;2023-05-02T09:43:40;98502.14703643971;;;19.82223239490348;50.29816128786145
71642;BME280;60657;50.122;14.468;2023-05-02T09:46:44;98496.06170091343;;;19.90501258869307;50.58236057068742
71642;BME280;60657;50.122;14.468;2023-05-02T09:49:50;98509.20738323641;;;19.67536430914778;50.32295719844358
71642;BME280;60657;50.122;14.468;2023-05-02T09:52:59;98503.07456411235;;;19.88899061570153;49.95483329518578
71642;BME280;60657;50.122;14.468;2023-05-02T09:56:05;98507.45921630101;;;20.043869687953006;48.45944914930953
71642;BME280;60657;50.122;14.468;2023-05-02T09:59:12;98501.68268906957;;;19.987792782482643;49.62676432440681
71642;BME280;60657;50.122;14.468;2023-05-02T10:02:17;98513.85513342872;;;19.867627985046155;49.00495918211643
71642;BME280;60657;50.122;14.468;2023-05-02T10:05:22;98507.9241997373;;;19.899671931029218;49.176623178454264
71642;BME280;60657;50.122;14.468;2023-05-02T10:08:26;98516.48416672456;;;19.86228732738232;49.44937819485771
71642;BME280;60657;50.122;14.468;2023-05-02T10:11:30;98514.7819335196;;;20.081254291599905;48.617761501487756
71642;BME280;60657;50.122;14.468;2023-05-02T10:14:38;98522.77121358443;;;20.289539940489817;48.438467994201574
71642;BME280;60657;50.122;14.468;2023-05-02T10:17:44;98520.97984266099;;;20.527199206530867;48.409857328145264
71642;BME280;60657;50.122;14.468;2023-05-02T10:20:53;98515.86602287872;;;20.51117723353933;47.74608987563897
71642;BME280;60657;50.122;14.468;2023-05-02T10:23:59;98514.54534513578;;;20.674067292286566;46.92019531548028
71642;BME280;60657;50.122;14.468;2023-05-02T10:27:03;98514.64132695315;;;20.80491340505074;47.97497520408942
71642;BME280;60657;50.122;14.468;2023-05-02T10:30:07;98518.5376581447;;;20.89036392767224;47.3436331731136
71642;BME280;60657;50.122;14.468;2023-05-02T10:33:12;98518.55860910374;;;20.708781567101553;47.52674143587396
71642;BME280;60657;50.122;14.468;2023-05-02T10:36:16;98519.10378783029;;;20.802243076218815;47.92919813839933
71642;BME280;60657;50.122;14.468;2023-05-02T10:39:23;98516.68537063553;;;20.67673762111849;47.33218890669108
71642;BME280;60657;50.122;14.468;2023-05-02T10:42:26;98529.33824271451;;;20.748836499580378;48.428931105516135
71642;BME280;60657;50.122;14.468;2023-05-02T10:45:33;98519.10378783029;;;20.788891432059202;48.474708171206224
71642;BME280;60657;50.122;14.468;2023-05-02T10:48:38;98526.14974212305;;;20.69008926527809;48.05317769130999
71642;BME280;60657;50.122;14.468;2023-05-02T10:51:41;98523.40041806186;;;20.53521019302663;49.344472419317924
71642;BME280;60657;50.122;14.468;2023-05-02T10:54:45;98519.07592785903;;;20.999847409781026;48.346913862821395
71642;BME280;60657;50.122;14.468;2023-05-02T10:58:20;98520.49444714804;;;21.07995727473869;48.18478675516899
71642;BME280;60657;50.122;14.468;2023-05-02T11:01:33;98518.3792669366;;;21.184100099183638;48.25917448691539
71642;BME280;60657;50.122;14.468;2023-05-02T11:04:57;98515.67061443384;;;21.133363851377126;47.290226596475165
71642;BME280;60657;50.122;14.468;2023-05-02T11:08:29;98517.3113785623;;;20.919737544823377;47.50194552529183
71642;BME280;60657;50.122;14.468;2023-05-02T11:11:40;98510.54659432807;;;21.272220950637063;47.69459067673762
71642;BME280;60657;50.122;14.468;2023-05-02T11:14:45;98518.14418063962;;;21.234836346990164;47.05180437933929